Time;durP1;ratioP1;P1;durP2;ratioP2;P2;SDS_P1;SDS_P2;PMS_P1;PMS_P2;Temp;Humidity;BMP_temperature;BMP_pressure;BME280_temperature;BME280_humidity;BME280_pressure;Samples;Min_cycle;Max_cycle;Signal;HPM_P1;HPM_P2
2022/10/14 00:01:16;;;;;;;3.43;2.40;;;;;;;12.95;100.00;96568.03;5030142;28;20217;-84
2022/10/14 00:03:44;;;;;;;4.07;2.70;;;;;;;12.88;100.00;96568.16;5033714;28;20214;-84
2022/10/14 00:06:16;;;;;;;4.67;2.90;;;;;;;12.85;100.00;96556.97;5028101;28;20225;-84
2022/10/14 00:08:44;;;;;;;5.47;3.00;;;;;;;12.90;100.00;96557.09;5033029;28;20293;-84
2022/10/14 00:11:16;;;;;;;5.53;3.00;;;;;;;12.92;100.00;96560.41;5025121;28;20219;-84
2022/10/14 00:13:43;;;;;;;5.80;3.20;;;;;;;12.87;100.00;96549.44;5027068;28;20214;-85
2022/10/14 00:16:16;;;;;;;4.60;2.77;;;;;;;12.91;100.00;96563.34;5019490;28;20205;-84
2022/10/14 00:18:43;;;;;;;5.33;2.90;;;;;;;13.03;100.00;96561.41;5028511;28;20206;-84
2022/10/14 00:21:11;;;;;;;5.20;2.80;;;;;;;12.95;100.00;96553.66;5006952;28;20234;-84
2022/10/14 00:23:39;;;;;;;5.97;3.20;;;;;;;12.93;100.00;96551.19;5004476;28;20212;-84
2022/10/14 00:26:07;;;;;;;4.93;3.10;;;;;;;12.91;100.00;96557.94;5009430;28;20216;-84
2022/10/14 00:28:35;;;;;;;4.93;2.77;;;;;;;12.84;100.00;96560.78;5006712;28;20245;-82
2022/10/14 00:31:02;;;;;;;5.70;3.27;;;;;;;12.86;100.00;96567.59;5009745;28;20215;-82
2022/10/14 00:33:29;;;;;;;4.57;3.00;;;;;;;12.83;100.00;96561.84;5007111;28;20214;-82
2022/10/14 00:36:03;;;;;;;5.83;2.93;;;;;;;12.79;100.00;96556.06;5008512;28;20204;-82
2022/10/14 00:38:33;;;;;;;5.00;3.70;;;;;;;12.72;100.00;96552.66;4999980;28;20214;-82
2022/10/14 00:41:02;;;;;;;7.17;3.47;;;;;;;12.70;100.00;96552.06;5010058;28;20230;-82
2022/10/14 00:43:30;;;;;;;4.37;3.60;;;;;;;12.73;100.00;96546.19;5007750;28;20207;-82
2022/10/14 00:45:57;;;;;;;4.10;3.50;;;;;;;12.73;100.00;96531.81;5018292;28;20214;-82
2022/10/14 00:48:26;;;;;;;4.83;3.57;;;;;;;12.70;100.00;96534.97;5010087;28;20315;-82
2022/10/14 00:50:57;;;;;;;7.53;3.57;;;;;;;12.76;100.00;96542.19;5021746;28;20214;-82
2022/10/14 00:53:24;;;;;;;6.57;3.43;;;;;;;12.76;100.00;96536.75;5017416;28;20214;-82
2022/10/14 00:55:53;;;;;;;3.83;3.00;;;;;;;12.71;100.00;96525.78;5001260;28;20235;-82
2022/10/14 00:58:24;;;;;;;6.10;3.27;;;;;;;12.73;100.00;96538.06;5014984;28;20196;-82
2022/10/14 01:00:52;;;;;;;5.57;3.23;;;;;;;12.73;100.00;96537.22;5001774;28;20262;-82
2022/10/14 01:03:22;;;;;;;4.13;3.20;;;;;;;12.67;100.00;96533.59;5005823;28;20203;-81
2022/10/14 01:05:55;;;;;;;5.47;3.07;;;;;;;12.74;100.00;96547.00;5005098;28;20207;-82
2022/10/14 01:08:30;;;;;;;5.57;3.03;;;;;;;12.79;100.00;96549.81;5004205;28;20226;-82
2022/10/14 01:11:05;;;;;;;3.57;3.17;;;;;;;12.82;100.00;96539.31;5019111;28;20258;-82
2022/10/14 01:13:40;;;;;;;3.43;2.57;;;;;;;12.78;100.00;96540.03;5007728;28;20214;-82
2022/10/14 01:16:16;;;;;;;4.63;2.97;;;;;;;12.80;100.00;96533.31;5011859;28;20197;-82
2022/10/14 01:18:58;;;;;;;9.00;2.80;;;;;;;12.71;100.00;96542.88;5006473;28;20203;-82
2022/10/14 01:21:29;;;;;;;5.23;2.70;;;;;;;12.72;100.00;96524.75;5047861;28;20205;-82
2022/10/14 01:24:28;;;;;;;5.80;2.87;;;;;;;12.71;100.00;96528.50;5048759;28;20213;-82
2022/10/14 01:27:17;;;;;;;3.07;2.20;;;;;;;12.73;100.00;96529.94;5054776;28;20256;-82
2022/10/14 01:30:01;;;;;;;3.03;2.43;;;;;;;12.74;100.00;96519.91;5036406;28;20224;-82
2022/10/14 01:32:30;;;;;;;8.30;3.00;;;;;;;12.80;100.00;96527.91;5043242;28;20209;-82
2022/10/14 01:35:06;;;;;;;5.33;2.30;;;;;;;12.78;100.00;96527.31;5024091;28;20206;-82
2022/10/14 01:37:37;;;;;;;3.03;2.20;;;;;;;12.74;100.00;96528.03;5030916;28;20197;-82
2022/10/14 01:40:11;;;;;;;4.00;2.20;;;;;;;12.73;100.00;96520.97;5029488;28;20289;-82
2022/10/14 01:42:42;;;;;;;5.00;2.70;;;;;;;12.69;100.00;96520.63;5052452;28;20198;-82
2022/10/14 01:45:16;;;;;;;6.73;2.50;;;;;;;12.61;100.00;96510.16;5035138;28;20205;-82
2022/10/14 01:47:44;;;;;;;3.23;2.43;;;;;;;12.60;100.00;96507.69;5022184;28;20205;-82
2022/10/14 01:50:17;;;;;;;3.50;2.03;;;;;;;12.66;100.00;96518.41;5024370;28;20245;-82
2022/10/14 01:52:49;;;;;;;4.80;2.40;;;;;;;12.64;100.00;96512.41;5026193;28;20217;-82
2022/10/14 01:55:21;;;;;;;3.60;2.33;;;;;;;12.68;100.00;96524.38;5024512;28;20201;-82
2022/10/14 01:57:51;;;;;;;2.93;2.33;;;;;;;12.66;100.00;96517.56;5046089;28;20205;-82
2022/10/14 02:00:20;;;;;;;3.40;2.30;;;;;;;12.63;100.00;96509.91;5028761;28;20202;-82
2022/10/14 02:02:47;;;;;;;3.77;2.60;;;;;;;12.64;100.00;96509.69;5041842;28;20217;-81
2022/10/14 02:05:20;;;;;;;3.57;2.40;;;;;;;12.60;100.00;96513.91;5045600;28;20193;-82
2022/10/14 02:07:50;;;;;;;3.60;2.67;;;;;;;12.55;100.00;96511.13;5026820;28;20233;-82
2022/10/14 02:10:27;;;;;;;5.17;2.63;;;;;;;12.46;100.00;96490.88;5029373;28;20221;-82
2022/10/14 02:13:07;;;;;;;3.97;2.57;;;;;;;12.46;100.00;96482.75;5025599;28;20205;-82
2022/10/14 02:15:47;;;;;;;4.57;2.67;;;;;;;12.56;100.00;96495.69;5027429;28;20262;-82
2022/10/14 02:18:23;;;;;;;3.53;2.80;;;;;;;12.55;100.00;96480.50;5044275;28;20260;-82
2022/10/14 02:20:56;;;;;;;4.20;2.77;;;;;;;12.59;100.00;96487.09;5045857;28;20320;-82
2022/10/14 02:23:28;;;;;;;5.00;3.47;;;;;;;12.58;100.00;96482.72;5044594;28;20232;-82
2022/10/14 02:25:57;;;;;;;4.03;3.47;;;;;;;12.52;100.00;96484.50;5029251;28;20241;-82
2022/10/14 02:28:27;;;;;;;3.97;2.50;;;;;;;12.53;100.00;96478.03;5028392;28;20209;-82
2022/10/14 02:31:00;;;;;;;3.17;2.73;;;;;;;12.47;100.00;96477.09;5038303;28;20293;-81
2022/10/14 02:33:34;;;;;;;3.50;2.50;;;;;;;12.43;100.00;96472.38;5031957;28;20205;-82
2022/10/14 02:36:03;;;;;;;3.90;2.50;;;;;;;12.39;100.00;96479.34;5032092;28;20202;-82
2022/10/14 02:38:31;;;;;;;2.90;2.47;;;;;;;12.44;100.00;96487.56;5037297;28;20273;-82
2022/10/14 02:41:03;;;;;;;4.07;2.63;;;;;;;12.42;100.00;96479.69;5035110;28;20205;-82
2022/10/14 02:43:30;;;;;;;5.77;2.90;;;;;;;12.38;100.00;96472.28;5046478;28;20215;-82
2022/10/14 02:46:00;;;;;;;3.10;2.33;;;;;;;12.30;100.00;96467.25;5039034;28;20285;-81
2022/10/14 02:48:28;;;;;;;2.97;2.47;;;;;;;12.26;100.00;96475.00;5031400;28;20230;-82
2022/10/14 02:50:55;;;;;;;5.33;2.50;;;;;;;12.32;100.00;96497.63;5032252;28;20247;-82
2022/10/14 02:53:22;;;;;;;4.70;2.60;;;;;;;12.36;100.00;96479.81;5044816;28;20209;-82
2022/10/14 02:55:49;;;;;;;2.50;2.23;;;;;;;12.36;100.00;96474.41;5032361;28;20206;-82
2022/10/14 02:58:16;;;;;;;2.90;2.60;;;;;;;12.24;100.00;96460.09;5033222;28;20202;-82
2022/10/14 03:00:43;;;;;;;3.00;2.70;;;;;;;12.29;100.00;96474.53;5032262;28;20202;-82
2022/10/14 03:03:13;;;;;;;6.30;2.33;;;;;;;12.27;100.00;96465.00;5029274;28;20207;-82
2022/10/14 03:05:41;;;;;;;2.97;2.30;;;;;;;12.36;100.00;96464.41;5036447;28;20205;-82
2022/10/14 03:08:13;;;;;;;7.93;2.40;;;;;;;12.39;100.00;96468.53;5046730;28;20244;-82
2022/10/14 03:10:40;;;;;;;4.30;2.47;;;;;;;12.26;100.00;96455.22;5039652;28;20229;-82
2022/10/14 03:13:10;;;;;;;3.07;2.20;;;;;;;12.24;100.00;96460.09;5026029;28;20201;-82
2022/10/14 03:15:42;;;;;;;4.00;2.20;;;;;;;12.21;100.00;96449.72;5049106;28;20202;-82
2022/10/14 03:18:13;;;;;;;3.03;2.30;;;;;;;12.24;100.00;96462.78;5035289;28;20209;-82
2022/10/14 03:20:45;;;;;;;5.37;2.00;;;;;;;12.11;100.00;96443.00;5025032;28;20273;-82
2022/10/14 03:23:15;;;;;;;2.70;2.40;;;;;;;12.18;100.00;96444.75;5032003;28;20272;-82
2022/10/14 03:25:44;;;;;;;3.27;2.10;;;;;;;12.11;100.00;96445.72;5031815;28;20223;-82
2022/10/14 03:28:20;;;;;;;6.53;2.37;;;;;;;12.04;100.00;96428.78;5044576;28;20203;-82
2022/10/14 03:30:57;;;;;;;2.33;2.07;;;;;;;12.11;100.00;96439.47;5034168;28;20237;-82
2022/10/14 03:33:44;;;;;;;7.63;3.50;;;;;;;12.12;100.00;96435.72;5051287;28;20248;-82
2022/10/14 03:36:13;;;;;;;2.20;1.90;;;;;;;12.09;100.00;96423.47;5028102;28;20213;-82
2022/10/14 03:38:51;;;;;;;3.00;2.00;;;;;;;12.13;100.00;96437.38;5033492;28;20201;-82
2022/10/14 03:41:26;;;;;;;2.97;1.90;;;;;;;12.09;100.00;96433.47;5039887;28;20205;-82
2022/10/14 03:43:53;;;;;;;4.27;1.77;;;;;;;12.02;100.00;96422.78;5036688;28;20217;-82
2022/10/14 03:46:21;;;;;;;4.13;1.70;;;;;;;12.04;100.00;96417.97;5040938;28;20201;-82
2022/10/14 03:48:52;;;;;;;2.10;1.90;;;;;;;12.05;100.00;96407.97;5039408;28;20203;-82
2022/10/14 03:51:20;;;;;;;4.13;1.60;;;;;;;12.09;100.00;96415.34;5039504;28;20325;-82
2022/10/14 03:53:48;;;;;;;1.70;1.57;;;;;;;12.07;100.00;96412.09;5038587;28;20205;-82
2022/10/14 03:56:23;;;;;;;3.43;1.70;;;;;;;12.02;100.00;96398.44;5045815;28;20229;-82
2022/10/14 03:58:52;;;;;;;4.00;1.77;;;;;;;12.00;100.00;96399.72;5036053;28;20207;-82
2022/10/14 04:01:20;;;;;;;1.63;1.50;;;;;;;12.11;100.00;96413.25;5036828;28;20195;-82
2022/10/14 04:04:07;;;;;;;2.37;1.40;;;;;;;12.20;100.00;96402.03;5056434;28;20281;-82
2022/10/14 04:06:36;;;;;;;2.53;1.47;;;;;;;12.18;100.00;96401.47;5033933;28;20202;-82
2022/10/14 04:09:05;;;;;;;2.43;1.70;;;;;;;12.13;100.00;96397.59;5023912;28;20238;-82
2022/10/14 04:11:37;;;;;;;1.40;1.30;;;;;;;12.09;100.00;96401.00;5043000;28;20218;-82
2022/10/14 04:14:09;;;;;;;4.07;1.67;;;;;;;12.07;100.00;96401.25;5050753;28;20203;-82
2022/10/14 04:16:43;;;;;;;2.13;1.80;;;;;;;12.06;100.00;96402.31;5052046;28;20290;-82
2022/10/14 04:19:14;;;;;;;1.50;1.40;;;;;;;12.07;100.00;96395.03;5031001;28;20236;-82
2022/10/14 04:21:42;;;;;;;2.40;1.43;;;;;;;12.06;100.00;96388.78;5029061;28;20210;-82
2022/10/14 04:24:11;;;;;;;2.70;1.30;;;;;;;12.01;100.00;96382.44;5031615;28;20245;-82
2022/10/14 04:26:46;;;;;;;3.67;1.57;;;;;;;11.95;100.00;96389.63;5035953;28;20278;-83
2022/10/14 04:29:23;;;;;;;3.23;1.50;;;;;;;12.08;100.00;96402.88;5027262;28;20202;-83
2022/10/14 04:32:00;;;;;;;2.77;1.30;;;;;;;12.05;100.00;96375.50;5023546;28;20194;-83
2022/10/14 04:34:30;;;;;;;1.73;1.63;;;;;;;12.02;100.00;96393.03;5050127;28;20206;-83
2022/10/14 04:36:58;;;;;;;1.70;1.10;;;;;;;11.95;100.00;96381.50;5032961;28;20224;-82
2022/10/14 04:39:43;;;;;;;3.00;1.30;;;;;;;12.08;100.00;96385.81;5054074;28;20313;-83
2022/10/14 04:42:11;;;;;;;3.60;1.30;;;;;;;12.05;100.00;96381.72;5022068;28;20225;-83
2022/10/14 04:44:38;;;;;;;3.50;2.00;;;;;;;12.01;100.00;96382.44;5034871;28;20202;-83
2022/10/14 04:47:06;;;;;;;2.77;1.83;;;;;;;12.02;100.00;96382.19;5031162;28;20202;-82
2022/10/14 04:49:34;;;;;;;1.90;1.40;;;;;;;12.05;100.00;96379.03;5032305;28;20202;-83
2022/10/14 04:52:08;;;;;;;3.00;1.80;;;;;;;12.12;100.00;96379.72;5042965;28;20206;-83
2022/10/14 04:54:51;;;;;;;3.97;2.13;;;;;;;12.05;100.00;96372.78;5035774;28;20221;-83
2022/10/14 04:57:28;;;;;;;4.07;1.60;;;;;;;12.10;100.00;96371.00;5032928;28;20197;-83
2022/10/14 04:59:56;;;;;;;2.83;1.70;;;;;;;12.05;100.00;96360.06;5032221;28;20202;-83
2022/10/14 05:02:42;;;;;;;3.97;2.00;;;;;;;12.01;100.00;96358.91;5044145;28;20226;-83
2022/10/14 05:05:13;;;;;;;3.60;1.70;;;;;;;11.94;100.00;96347.38;5026662;28;20202;-83
2022/10/14 05:07:42;;;;;;;3.10;1.53;;;;;;;11.94;100.00;96347.38;5044254;28;20225;-84
2022/10/14 05:10:27;;;;;;;1.60;1.30;;;;;;;12.01;100.00;96345.38;5033824;28;20222;-84
2022/10/14 05:12:55;;;;;;;4.80;1.17;;;;;;;12.08;100.00;96351.47;5036716;28;20237;-84
2022/10/14 05:15:24;;;;;;;2.97;1.13;;;;;;;12.05;100.00;96343.00;5045084;28;20207;-83
2022/10/14 05:18:20;;;;;;;3.93;1.10;;;;;;;12.05;100.00;96343.84;5034415;28;20198;-84
2022/10/14 05:20:59;;;;;;;1.60;1.20;;;;;;;12.09;100.00;96331.47;5031499;28;20257;-84
2022/10/14 05:23:37;;;;;;;4.17;1.40;;;;;;;12.10;100.00;96345.81;5026421;28;20202;-84
2022/10/14 05:26:04;;;;;;;4.90;1.60;;;;;;;12.08;100.00;96347.94;5032589;28;20210;-83
2022/10/14 05:28:32;;;;;;;1.60;1.50;;;;;;;12.08;100.00;96356.88;5030521;28;20244;-84
2022/10/14 05:30:59;;;;;;;4.87;1.70;;;;;;;12.08;100.00;96342.53;5028961;28;20229;-83
2022/10/14 05:33:27;;;;;;;2.83;1.73;;;;;;;12.07;100.00;96347.13;5025173;28;20206;-84
2022/10/14 05:35:54;;;;;;;1.90;1.50;;;;;;;12.09;100.00;96344.16;5030392;28;20209;-83
2022/10/14 05:38:23;;;;;;;2.13;1.80;;;;;;;12.15;100.00;96337.81;5045173;28;20209;-82
2022/10/14 05:40:52;;;;;;;4.03;1.70;;;;;;;12.13;100.00;96334.53;5030157;28;20252;-83
2022/10/14 05:43:20;;;;;;;1.97;1.20;;;;;;;12.08;100.00;96326.28;5035277;28;20205;-83
2022/10/14 05:45:47;;;;;;;3.00;2.10;;;;;;;12.06;100.00;96320.31;5028744;28;20206;-82
2022/10/14 05:48:15;;;;;;;11.13;2.00;;;;;;;11.99;100.00;96323.13;5030790;28;20201;-82
2022/10/14 05:50:42;;;;;;;2.07;1.50;;;;;;;11.94;100.00;96311.38;5027079;28;20305;-83
2022/10/14 05:53:13;;;;;;;7.10;1.60;;;;;;;11.92;100.00;96317.03;5041708;28;20216;-83
2022/10/14 05:55:45;;;;;;;1.87;1.67;;;;;;;12.00;100.00;96313.94;5034642;28;20214;-82
2022/10/14 05:58:12;;;;;;;6.07;1.73;;;;;;;11.90;100.00;96319.19;5025410;28;20203;-83
2022/10/14 06:00:42;;;;;;;3.00;1.60;;;;;;;11.89;100.00;96312.13;5031801;28;20198;-82
2022/10/14 06:03:14;;;;;;;1.93;1.57;;;;;;;11.90;100.00;96302.13;5040046;28;20223;-83
2022/10/14 06:05:41;;;;;;;5.00;1.63;;;;;;;11.86;100.00;96312.59;5026449;28;20228;-82
2022/10/14 06:08:09;;;;;;;10.10;1.77;;;;;;;11.87;100.00;96306.13;5032919;28;20206;-84
2022/10/14 06:10:38;;;;;;;2.37;1.60;;;;;;;11.93;100.00;96305.16;5031647;28;20271;-83
2022/10/14 06:13:07;;;;;;;1.57;1.40;;;;;;;11.93;100.00;96299.75;5044723;28;20207;-83
2022/10/14 06:15:38;;;;;;;3.00;1.47;;;;;;;12.01;100.00;96302.06;5030987;28;20202;-82
2022/10/14 06:18:06;;;;;;;2.10;1.47;;;;;;;11.94;100.00;96301.38;5028944;28;20202;-83
2022/10/14 06:20:33;;;;;;;3.10;1.40;;;;;;;11.90;100.00;96313.78;5026769;28;20242;-82
2022/10/14 06:23:01;;;;;;;2.57;1.60;;;;;;;11.97;100.00;96310.91;5056074;28;20202;-83
2022/10/14 06:25:28;;;;;;;2.07;1.40;;;;;;;11.92;100.00;96306.22;5050039;28;20260;-83
2022/10/14 06:27:55;;;;;;;3.17;1.53;;;;;;;11.90;100.00;96313.78;5028528;28;20206;-82
2022/10/14 06:30:24;;;;;;;1.90;1.70;;;;;;;11.87;100.00;96314.22;5044567;28;20228;-83
2022/10/14 06:32:52;;;;;;;2.53;1.40;;;;;;;11.93;100.00;96312.44;5027734;28;20213;-83
2022/10/14 06:35:19;;;;;;;2.37;1.40;;;;;;;12.06;100.00;96313.00;5044820;28;20209;-83
2022/10/14 06:37:47;;;;;;;11.17;8.47;;;;;;;12.08;100.00;96304.63;5050684;28;20206;-83
2022/10/14 06:40:14;;;;;;;45.00;29.40;;;;;;;12.11;100.00;96310.41;5044267;28;20198;-83
2022/10/14 06:42:41;;;;;;;12.40;7.73;;;;;;;12.13;100.00;96305.56;5045878;28;20195;-83
2022/10/14 06:45:09;;;;;;;7.67;4.60;;;;;;;12.20;100.00;96312.72;5038714;28;20198;-84
2022/10/14 06:47:37;;;;;;;7.20;3.90;;;;;;;12.22;100.00;96302.47;5027493;28;20233;-82
2022/10/14 06:50:05;;;;;;;8.10;6.53;;;;;;;12.33;100.00;96317.84;5028096;28;20199;-83
2022/10/14 06:52:33;;;;;;;12.03;8.33;;;;;;;12.36;100.00;96318.19;5033977;28;20234;-82
2022/10/14 06:55:00;;;;;;;4.07;3.47;;;;;;;12.35;100.00;96313.00;5037482;28;20221;-83
2022/10/14 06:57:27;;;;;;;6.23;2.97;;;;;;;12.40;100.00;96305.81;5026949;28;20209;-83
2022/10/14 06:59:54;;;;;;;7.53;2.10;;;;;;;12.41;100.00;96309.34;5030530;28;20293;-83
2022/10/14 07:02:22;;;;;;;2.63;2.10;;;;;;;12.44;100.00;96306.97;5027600;28;20207;-83
2022/10/14 07:04:50;;;;;;;4.13;2.03;;;;;;;12.51;100.00;96309.50;5049208;28;20202;-83
2022/10/14 07:07:17;;;;;;;2.33;2.00;;;;;;;12.55;100.00;96315.28;5039033;28;20217;-82
2022/10/14 07:09:44;;;;;;;3.30;3.00;;;;;;;12.57;100.00;96308.56;5031515;28;20226;-83
2022/10/14 07:12:11;;;;;;;2.97;2.47;;;;;;;12.58;100.00;96310.19;5051741;28;20316;-83
2022/10/14 07:14:38;;;;;;;4.80;2.50;;;;;;;12.62;100.00;96316.75;5027572;28;20206;-83
2022/10/14 07:17:07;;;;;;;2.90;2.40;;;;;;;12.68;100.00;96325.78;5037631;28;20194;-83
2022/10/14 07:19:34;;;;;;;4.57;2.47;;;;;;;12.63;100.00;96321.13;5038221;28;20256;-83
2022/10/14 07:22:02;;;;;;;6.13;2.57;;;;;;;12.70;100.00;96335.31;5031542;28;20251;-83
2022/10/14 07:24:29;;;;;;;3.00;2.50;;;;;;;12.81;100.00;96333.63;5029088;28;20210;-83
2022/10/14 07:26:56;;;;;;;4.70;3.07;;;;;;;12.86;100.00;96342.66;5031398;28;20202;-83
2022/10/14 07:29:23;;;;;;;8.00;4.80;;;;;;;12.93;100.00;96355.25;5034583;28;20214;-83
2022/10/14 07:31:51;;;;;;;4.70;3.60;;;;;;;12.95;100.00;96359.34;5034730;28;20222;-82
2022/10/14 07:34:18;;;;;;;7.67;3.10;;;;;;;12.97;100.00;96356.38;5051035;28;20271;-83
2022/10/14 07:36:47;;;;;;;6.47;3.97;;;;;;;12.96;100.00;96349.31;5037989;28;20209;-82
2022/10/14 07:39:16;;;;;;;5.23;3.43;;;;;;;13.01;100.00;96355.66;5029288;28;20208;-80
2022/10/14 07:41:43;;;;;;;6.37;4.10;;;;;;;13.06;100.00;96349.50;5032945;28;20202;-81
2022/10/14 07:44:12;;;;;;;4.40;3.13;;;;;;;13.02;100.00;96342.91;5051771;28;20206;-81
2022/10/14 07:46:42;;;;;;;3.23;2.53;;;;;;;13.11;100.00;96349.56;5062877;28;20221;-81
2022/10/14 07:49:13;;;;;;;3.90;2.20;;;;;;;13.11;100.00;96350.38;5039802;28;20226;-83
2022/10/14 07:51:41;;;;;;;2.27;1.80;;;;;;;13.12;100.00;96348.50;5051798;28;20222;-83
2022/10/14 07:54:12;;;;;;;4.53;1.80;;;;;;;13.13;100.00;96364.56;5051465;28;20233;-83
2022/10/14 07:56:42;;;;;;;1.70;1.60;;;;;;;13.16;100.00;96361.38;5049765;28;20202;-82
2022/10/14 07:59:09;;;;;;;2.90;1.93;;;;;;;13.17;100.00;96352.16;5063940;28;20186;-82
2022/10/14 08:01:36;;;;;;;2.43;1.43;;;;;;;13.19;100.00;96355.44;5050496;28;20194;-83
2022/10/14 08:04:04;;;;;;;3.00;1.60;;;;;;;13.19;100.00;96365.47;5035769;28;20210;-83
2022/10/14 08:06:31;;;;;;;7.83;1.80;;;;;;;13.15;100.00;96365.16;5034727;28;20210;-82
2022/10/14 08:08:58;;;;;;;4.83;1.90;;;;;;;13.12;100.00;96357.47;5032122;28;20209;-82
2022/10/14 08:11:27;;;;;;;4.00;2.00;;;;;;;13.19;100.00;96371.69;5046460;28;20277;-83
2022/10/14 08:13:57;;;;;;;4.83;1.90;;;;;;;13.20;100.00;96361.69;5035509;28;20301;-82
2022/10/14 08:16:26;;;;;;;4.90;2.10;;;;;;;13.24;100.00;96362.84;5053229;28;20206;-82
2022/10/14 08:18:55;;;;;;;2.70;1.83;;;;;;;13.27;100.00;96350.69;5042165;28;20205;-82
2022/10/14 08:21:22;;;;;;;5.27;2.00;;;;;;;13.33;100.00;96357.84;5046605;28;20265;-82
2022/10/14 08:23:49;;;;;;;5.07;2.10;;;;;;;13.40;100.00;96358.47;5032422;28;20222;-82
2022/10/14 08:26:24;;;;;;;4.37;2.93;;;;;;;13.39;100.00;96368.50;5032862;28;20298;-82
2022/10/14 08:28:51;;;;;;;5.00;2.60;;;;;;;13.40;100.00;96350.34;5029690;28;20195;-83
2022/10/14 08:31:20;;;;;;;3.90;2.07;;;;;;;13.42;100.00;96365.31;5032735;28;20258;-82
2022/10/14 08:33:47;;;;;;;4.30;2.00;;;;;;;13.49;100.00;96360.53;5047922;28;20195;-83
2022/10/14 08:36:15;;;;;;;3.90;2.10;;;;;;;13.51;100.00;96357.56;5032664;28;20206;-82
2022/10/14 08:38:41;;;;;;;1.97;1.73;;;;;;;13.47;100.00;96368.09;5034422;28;20213;-83
2022/10/14 08:41:24;;;;;;;2.30;2.07;;;;;;;13.52;100.00;96365.47;5055784;28;20201;-83
2022/10/14 08:44:01;;;;;;;2.60;2.03;;;;;;;13.48;100.00;96372.44;5056161;28;20225;-83
2022/10/14 08:46:36;;;;;;;5.00;2.00;;;;;;;13.45;100.00;96355.84;5047751;28;20202;-83
2022/10/14 08:49:12;;;;;;;3.37;1.93;;;;;;;13.53;100.00;96375.22;5038029;28;20202;-84
2022/10/14 08:51:44;;;;;;;2.43;1.60;;;;;;;13.57;100.00;96376.38;5038084;28;20231;-82
2022/10/14 08:54:19;;;;;;;2.40;2.00;;;;;;;13.56;100.00;96377.47;5054117;28;20209;-86
2022/10/14 08:56:47;;;;;;;3.13;1.77;;;;;;;13.62;100.00;96381.88;5030413;28;20210;-83
2022/10/14 08:59:19;;;;;;;2.80;2.23;;;;;;;13.67;100.00;96383.88;5029980;28;20201;-83
2022/10/14 09:01:52;;;;;;;4.17;2.57;;;;;;;13.71;100.00;96381.44;5030934;28;20209;-83
2022/10/14 09:04:20;;;;;;;4.47;1.97;;;;;;;13.74;100.00;96380.97;5028701;28;20245;-83
2022/10/14 09:06:49;;;;;;;2.93;2.00;;;;;;;13.72;100.00;96388.53;5036875;28;20206;-84
2022/10/14 09:09:23;;;;;;;4.73;2.97;;;;;;;13.77;100.00;96380.47;5031656;28;20218;-84
2022/10/14 09:11:56;;;;;;;3.80;2.37;;;;;;;13.66;100.00;96376.78;5033317;28;20229;-83
2022/10/14 09:14:26;;;;;;;3.40;2.60;;;;;;;13.78;100.00;96387.56;5028967;28;20289;-83
2022/10/14 09:17:00;;;;;;;4.63;2.07;;;;;;;13.66;100.00;96375.97;5034999;28;20206;-83
2022/10/14 09:19:31;;;;;;;3.60;1.87;;;;;;;13.77;100.00;96373.16;5042249;28;20234;-84
2022/10/14 09:22:01;;;;;;;2.90;2.00;;;;;;;13.82;100.00;96364.25;5039326;28;20214;-84
2022/10/14 09:24:31;;;;;;;2.20;1.90;;;;;;;13.84;100.00;96375.69;5031801;28;20233;-83
2022/10/14 09:27:04;;;;;;;2.50;2.30;;;;;;;13.95;100.00;96385.63;5036893;28;20206;-84
2022/10/14 09:29:34;;;;;;;5.77;2.10;;;;;;;13.97;100.00;96376.13;5027041;28;20206;-84
2022/10/14 09:32:05;;;;;;;1.90;1.67;;;;;;;14.04;100.00;96378.66;5032793;28;20222;-83
2022/10/14 09:34:36;;;;;;;4.60;1.90;;;;;;;14.10;100.00;96366.81;5050007;28;20205;-83
2022/10/14 09:37:23;;;;;;;2.63;1.50;;;;;;;14.06;100.00;96354.81;5054635;28;20201;-86
2022/10/14 09:39:51;;;;;;;3.67;1.60;;;;;;;14.09;100.00;96354.31;5034531;28;20251;-83
2022/10/14 09:42:22;;;;;;;2.60;1.40;;;;;;;14.14;100.00;96357.09;5036676;28;20201;-83
2022/10/14 09:45:11;;;;;;;3.97;1.30;;;;;;;14.16;100.00;96354.13;5040448;28;20387;-84
2022/10/14 09:47:51;;;;;;;1.60;1.10;;;;;;;14.28;100.00;96352.13;5046355;28;20209;-83
2022/10/14 09:50:24;;;;;;;4.00;1.57;;;;;;;14.49;100.00;96342.31;5048725;28;20198;-82
2022/10/14 09:52:55;;;;;;;1.77;1.43;;;;;;;14.55;100.00;96338.56;5049495;28;20226;-82
2022/10/14 09:55:24;;;;;;;2.70;1.70;;;;;;;14.66;100.00;96337.63;5030301;28;20236;-82
2022/10/14 09:58:07;;;;;;;2.70;1.50;;;;;;;14.73;100.00;96333.59;5034262;28;20245;-82
2022/10/14 10:00:37;;;;;;;1.87;1.40;;;;;;;14.88;100.00;96327.53;5029556;28;20296;-82
2022/10/14 10:03:06;;;;;;;2.30;2.00;;;;;;;15.20;100.00;96332.13;5053768;28;20197;-82
2022/10/14 10:05:35;;;;;;;2.23;1.60;;;;;;;15.36;100.00;96336.63;5045392;28;20237;-82
2022/10/14 10:08:09;;;;;;;1.87;1.67;;;;;;;15.52;100.00;96325.56;5033463;28;20203;-82
2022/10/14 10:10:37;;;;;;;2.27;1.50;;;;;;;15.64;100.00;96328.16;5028852;28;20244;-82
2022/10/14 10:13:04;;;;;;;2.50;1.80;;;;;;;15.81;100.00;96317.91;5029031;28;20220;-82
2022/10/14 10:15:31;;;;;;;2.63;1.60;;;;;;;15.88;100.00;96310.31;5032908;28;20202;-83
2022/10/14 10:17:58;;;;;;;3.30;1.10;;;;;;;15.97;100.00;96315.25;5026969;28;20301;-84
2022/10/14 10:20:34;;;;;;;2.23;1.30;;;;;;;16.10;100.00;96310.13;5047084;28;20330;-84
2022/10/14 10:23:24;;;;;;;1.50;1.40;;;;;;;16.18;100.00;96300.63;5041797;28;20273;-84
2022/10/14 10:25:52;;;;;;;2.00;1.13;;;;;;;16.23;100.00;96284.31;5032917;28;20272;-84
2022/10/14 10:28:30;;;;;;;2.40;1.10;;;;;;;16.25;100.00;96279.41;5028784;28;20214;-83
2022/10/14 10:31:06;;;;;;;1.13;1.03;;;;;;;16.40;100.00;96284.09;5042943;28;20293;-84
2022/10/14 10:33:46;;;;;;;2.63;1.20;;;;;;;16.50;100.00;96265.84;5033371;28;20302;-84
2022/10/14 10:36:22;;;;;;;2.40;1.47;;;;;;;16.55;100.00;96271.31;5042701;28;20301;-84
2022/10/14 10:38:58;;;;;;;2.20;1.30;;;;;;;16.64;100.00;96267.00;5039617;28;20289;-82
2022/10/14 10:41:42;;;;;;;1.17;1.07;;;;;;;16.80;100.00;96264.28;5039807;28;21248;-83
2022/10/14 10:44:32;;;;;;;1.07;0.97;;;;;;;16.83;100.00;96261.03;5019471;28;20238;-84
2022/10/14 10:47:14;;;;;;;2.10;1.10;;;;;;;17.02;100.00;96251.19;5045495;28;20272;-83
2022/10/14 10:50:15;;;;;;;2.63;1.20;;;;;;;17.22;100.00;96242.19;5045784;28;20201;-82
2022/10/14 10:52:55;;;;;;;3.63;1.10;;;;;;;17.14;100.00;96240.84;5054142;28;20217;-81
2022/10/14 10:55:31;;;;;;;1.40;1.27;;;;;;;17.41;100.00;96240.53;5034173;28;20233;-81
2022/10/14 10:58:05;;;;;;;1.20;1.00;;;;;;;17.66;100.00;96221.38;5031176;28;20210;-81
2022/10/14 11:00:38;;;;;;;2.17;1.00;;;;;;;18.19;100.00;96234.56;5029261;28;20212;-81
2022/10/14 11:03:24;;;;;;;1.50;1.23;;;;;;;18.45;100.00;96234.13;5047291;28;20222;-81
2022/10/14 11:06:00;;;;;;;3.00;1.10;;;;;;;18.62;100.00;96230.22;5044665;28;20210;-81
2022/10/14 11:14:38;;;;;;;3.00;1.10;;;;;;;19.39;99.83;96204.66;5042746;28;20233;-82
2022/10/14 11:17:11;;;;;;;2.55;1.10;;;;;;;19.41;99.19;96201.63;5048131;28;20209;-83
2022/10/14 11:19:48;;;;;;;2.05;1.10;;;;;;;19.45;97.06;96206.25;5038009;28;20229;-83
2022/10/14 11:22:38;;;;;;;1.00;1.00;;;;;;;19.43;100.00;96196.69;5054524;28;20263;-83
2022/10/14 11:25:20;;;;;;;2.05;1.30;;;;;;;19.21;100.00;96189.78;5048130;28;20218;-83
2022/10/14 11:27:54;;;;;;;1.48;1.15;;;;;;;19.09;100.00;96186.59;5029440;28;20202;-80
2022/10/14 11:30:28;;;;;;;1.70;1.40;;;;;;;18.89;100.00;96170.38;5046177;28;20229;-80
2022/10/14 11:33:16;;;;;;;2.47;1.45;;;;;;;18.83;100.00;96180.53;5029370;28;20226;-80
2022/10/14 11:35:53;;;;;;;2.85;1.35;;;;;;;18.70;100.00;96180.41;5032899;28;20224;-80
2022/10/14 11:38:38;;;;;;;3.35;1.38;;;;;;;18.60;100.00;96194.97;5050177;28;20241;-80
2022/10/14 11:41:16;;;;;;;1.48;1.13;;;;;;;18.50;100.00;96179.41;5046699;28;20222;-80
2022/10/14 11:43:50;;;;;;;1.70;1.40;;;;;;;18.52;100.00;96176.41;5035673;28;20211;-80
2022/10/14 11:46:21;;;;;;;3.05;1.80;;;;;;;18.71;100.00;96171.09;5042067;28;20209;-81
2022/10/14 11:48:52;;;;;;;4.10;1.35;;;;;;;19.05;100.00;96162.84;5037967;28;20240;-80
2022/10/14 11:51:27;;;;;;;2.53;1.40;;;;;;;19.27;100.00;96165.91;5033422;28;20302;-81